createdAt,value
2022-11-09T00:02:03.802Z,100056.74
2022-11-09T00:04:08.185Z,100057.9
2022-11-09T00:06:12.542Z,100063.65
2022-11-09T00:08:16.968Z,100060.63
2022-11-09T00:10:21.905Z,100057.39
2022-11-09T00:12:26.306Z,100058.49
2022-11-09T00:14:30.730Z,100049.08
2022-11-09T00:16:35.174Z,100049.45
2022-11-09T00:18:39.559Z,100047.66
2022-11-09T00:20:48.763Z,100048
2022-11-09T00:22:53.296Z,100054.25
2022-11-09T00:24:57.656Z,100054.19
2022-11-09T00:27:02.048Z,100055.72
2022-11-09T00:29:06.424Z,100051.5
2022-11-09T00:31:10.804Z,100047.25
2022-11-09T00:33:15.247Z,100044.3
2022-11-09T00:35:19.921Z,100040.31
2022-11-09T00:37:24.479Z,100045.44
2022-11-09T00:39:29.005Z,100046.6
2022-11-09T00:41:33.377Z,100047.18
2022-11-09T00:43:37.957Z,100056.59
2022-11-09T00:45:42.583Z,100054.77
2022-11-09T00:47:46.979Z,100046.61
2022-11-09T00:49:51.385Z,100047.13
2022-11-09T00:51:55.755Z,100041.08
2022-11-09T00:54:00.153Z,100029.89
2022-11-09T00:56:04.490Z,100036.56
2022-11-09T00:58:08.891Z,100040.09
2022-11-09T01:00:13.251Z,100041.05
2022-11-09T01:02:17.617Z,100036.87
2022-11-09T01:04:22.008Z,100032.22
2022-11-09T01:06:26.522Z,100029.23
2022-11-09T01:08:31.233Z,100037.26
2022-11-09T01:10:35.609Z,100034.54
2022-11-09T01:12:39.993Z,100035.44
2022-11-09T01:14:44.366Z,100028.88
2022-11-09T01:16:48.730Z,100028.95
2022-11-09T01:18:53.304Z,100028.58
2022-11-09T01:20:57.642Z,100034.02
2022-11-09T01:23:02.022Z,100034.19
2022-11-09T01:25:06.407Z,100030.97
2022-11-09T01:27:10.783Z,100031.01
2022-11-09T01:29:15.146Z,100032.17
2022-11-09T01:31:19.478Z,100028.4
2022-11-09T01:33:23.954Z,100027.72
2022-11-09T01:35:28.317Z,100027.39
2022-11-09T01:37:32.660Z,100026.98
2022-11-09T01:39:37.178Z,100023.83
2022-11-09T01:41:41.519Z,100022.57
2022-11-09T01:43:45.918Z,100018.73
2022-11-09T01:45:50.269Z,100017
2022-11-09T01:47:54.669Z,100012.14
2022-11-09T01:49:59.064Z,100008.69
2022-11-09T01:52:03.429Z,100009.61
2022-11-09T01:54:07.818Z,100013.35
2022-11-09T01:56:12.181Z,100010.73
2022-11-09T01:58:16.563Z,100009.59
2022-11-09T02:00:21.012Z,100012.1
2022-11-09T02:02:25.403Z,100015.23
2022-11-09T02:04:29.802Z,100018.08
2022-11-09T02:06:34.352Z,100018.55
2022-11-09T02:08:38.819Z,100013.77
2022-11-09T02:10:43.181Z,100008.91
2022-11-09T02:12:47.522Z,100013.22
2022-11-09T02:14:51.892Z,100009.66
2022-11-09T02:16:56.275Z,100011.13
2022-11-09T02:19:00.654Z,100011.06
2022-11-09T02:21:05.042Z,100007.94
2022-11-09T02:23:09.385Z,100002.77
2022-11-09T02:25:13.760Z,100010.98
2022-11-09T02:27:18.107Z,100009.36
2022-11-09T02:29:22.460Z,100011.06
2022-11-09T02:31:26.825Z,100012.3
2022-11-09T02:33:31.304Z,100011
2022-11-09T02:35:35.691Z,100007.2
2022-11-09T02:37:40.092Z,100005.02
2022-11-09T02:39:44.429Z,100006.08
2022-11-09T02:41:48.835Z,100004.21
2022-11-09T02:43:53.199Z,100013.42
2022-11-09T02:45:57.590Z,100017.3
2022-11-09T02:48:01.958Z,100015.27
2022-11-09T02:50:06.500Z,100008.78
2022-11-09T02:52:10.899Z,100012.11
2022-11-09T02:54:15.249Z,100015.64
2022-11-09T02:56:19.616Z,100008.98
2022-11-09T02:58:23.968Z,100000.61
2022-11-09T03:00:28.429Z,100005.8
2022-11-09T03:02:32.836Z,100008.18
2022-11-09T03:04:37.179Z,100017.28
2022-11-09T03:06:41.710Z,100016.44
2022-11-09T03:08:46.182Z,100019.83
2022-11-09T03:10:50.558Z,100025.91
2022-11-09T03:12:54.910Z,100023.7
2022-11-09T03:14:59.231Z,100027.88
2022-11-09T03:17:03.612Z,100025.56
2022-11-09T03:19:08.006Z,100014.9
2022-11-09T03:21:12.381Z,100020.47
2022-11-09T03:23:17.056Z,100025.49
2022-11-09T03:25:22.120Z,100029.41
2022-11-09T03:27:26.592Z,100030.66
2022-11-09T03:29:30.936Z,100029.58
2022-11-09T03:31:35.318Z,100035.86
2022-11-09T03:33:39.681Z,100032.3
2022-11-09T03:35:44.048Z,100035.19
2022-11-09T03:37:48.612Z,100037.8
2022-11-09T03:39:53.208Z,100036.58
2022-11-09T03:41:57.613Z,100038.85
2022-11-09T03:44:01.970Z,100035.97
2022-11-09T03:46:06.349Z,100038.28
2022-11-09T03:48:10.741Z,100030.7
2022-11-09T03:50:15.095Z,100031.83
2022-11-09T03:52:19.444Z,100026.66
2022-11-09T03:54:23.826Z,100025.38
2022-11-09T03:56:28.165Z,100021.91
2022-11-09T03:58:32.577Z,100022.97
2022-11-09T04:00:36.921Z,100023.88
2022-11-09T04:02:41.306Z,100026.13
2022-11-09T04:04:45.725Z,100021
2022-11-09T04:06:50.300Z,100020.19
2022-11-09T04:08:54.819Z,100014.55
2022-11-09T04:10:59.197Z,100017.7
2022-11-09T04:13:03.600Z,100016.28
2022-11-09T04:15:07.960Z,100019.44
2022-11-09T04:17:12.355Z,100015.16
2022-11-09T04:19:16.699Z,100014.45
2022-11-09T04:21:24.896Z,100011.63
2022-11-09T04:23:29.233Z,100011.56
2022-11-09T04:25:33.604Z,100014.38
2022-11-09T04:27:38.005Z,100012.01
2022-11-09T04:29:42.443Z,100012.52
2022-11-09T04:31:46.807Z,100010.55
2022-11-09T04:33:51.204Z,100008.75
2022-11-09T04:35:55.560Z,100008.61
2022-11-09T04:38:00.101Z,100009.4
2022-11-09T04:40:04.435Z,100003.56
2022-11-09T04:42:08.812Z,99998.88
2022-11-09T04:44:13.111Z,99997.21
2022-11-09T04:46:17.428Z,99992.77
2022-11-09T04:48:21.742Z,99995.48
2022-11-09T04:50:26.091Z,99995.82
2022-11-09T04:52:30.405Z,99996.3
2022-11-09T04:54:34.697Z,99995.17
2022-11-09T04:56:39.009Z,99994.47
2022-11-09T04:58:43.362Z,99992.39
2022-11-09T05:00:47.685Z,99989.81
2022-11-09T05:02:52.028Z,99996.71
2022-11-09T05:04:56.385Z,99995.69
2022-11-09T05:07:00.879Z,99998.38
2022-11-09T05:09:05.378Z,99996.14
2022-11-09T05:11:09.686Z,99998.55
2022-11-09T05:13:14.011Z,100000.86
2022-11-09T05:15:18.321Z,99996.34
2022-11-09T05:17:22.590Z,99994.95
2022-11-09T05:19:26.930Z,99992.03
2022-11-09T05:21:31.190Z,99986.47
2022-11-09T05:23:35.513Z,99978.97
2022-11-09T05:25:39.847Z,99981.34
2022-11-09T05:27:44.175Z,99985.31
2022-11-09T05:29:48.499Z,99981.65
2022-11-09T05:31:53.604Z,99980.46
2022-11-09T05:33:57.929Z,99983.8
2022-11-09T05:36:02.235Z,99988
2022-11-09T05:38:06.554Z,99989.77
2022-11-09T05:40:10.892Z,99991.77
2022-11-09T05:42:15.183Z,99992.66
2022-11-09T05:44:19.501Z,99992.28
2022-11-09T05:46:23.814Z,99994.25
2022-11-09T05:48:28.172Z,99997.14
2022-11-09T05:50:32.562Z,99998.66
2022-11-09T05:52:36.893Z,99998.7
2022-11-09T05:54:41.244Z,99995.84
2022-11-09T05:56:45.510Z,99991.77
2022-11-09T05:58:49.898Z,99992.11
2022-11-09T06:00:54.209Z,99998.02
2022-11-09T06:02:58.564Z,100007.05
2022-11-09T06:05:02.970Z,100000.5
2022-11-09T06:07:07.462Z,99999.65
2022-11-09T06:09:11.993Z,100009.29
2022-11-09T06:11:24.657Z,100011.97
2022-11-09T06:13:29.032Z,100001.07
2022-11-09T06:15:33.483Z,99997.47
2022-11-09T06:17:37.884Z,99993.96
2022-11-09T06:19:42.203Z,99996.28
2022-11-09T06:21:46.497Z,99993.88
2022-11-09T06:23:50.807Z,99993.83
2022-11-09T06:25:55.210Z,99999.86
2022-11-09T06:27:59.581Z,100010.98
2022-11-09T06:30:03.974Z,100013.38
2022-11-09T06:32:08.328Z,100010.7
2022-11-09T06:34:12.688Z,100014.69
2022-11-09T06:36:17.123Z,100012.31
2022-11-09T06:38:21.479Z,100020.09
2022-11-09T06:40:25.861Z,100016.94
2022-11-09T06:42:30.398Z,100015.41
2022-11-09T06:44:34.958Z,100015.58
2022-11-09T06:46:39.364Z,100013.17
2022-11-09T06:48:43.735Z,100007.14
2022-11-09T06:50:48.145Z,100002.96
2022-11-09T06:52:52.494Z,100001.36
2022-11-09T06:54:56.886Z,100000.87
2022-11-09T06:57:01.242Z,100005.75
2022-11-09T06:59:05.610Z,100006.7
2022-11-09T07:01:10.138Z,99995.23
2022-11-09T07:03:15.056Z,100000.29
2022-11-09T07:05:19.421Z,100007.52
2022-11-09T07:07:28.950Z,100004.18
2022-11-09T07:09:33.447Z,100004.78
2022-11-09T07:11:37.856Z,100005.05
2022-11-09T07:13:42.554Z,100001.73
2022-11-09T07:15:46.943Z,100001
2022-11-09T07:17:51.450Z,100003.8
2022-11-09T07:19:55.815Z,100003.77
2022-11-09T07:22:00.254Z,100003.92
2022-11-09T07:24:04.648Z,100016.02
2022-11-09T07:26:09.068Z,100026.27
2022-11-09T07:28:13.438Z,100027.17
2022-11-09T07:30:17.855Z,100029.09
2022-11-09T07:32:54.032Z,100034.83
2022-11-09T07:35:13.152Z,100035.91
2022-11-09T07:37:17.552Z,100040.33
2022-11-09T07:39:21.932Z,100034.64
2022-11-09T07:41:34.439Z,100023.98
2022-11-09T07:43:39.130Z,100021.53
2022-11-09T07:45:43.521Z,100019.55
2022-11-09T07:47:47.900Z,100022.12
2022-11-09T07:49:52.268Z,100015.58
2022-11-09T07:51:56.720Z,100013.85
2022-11-09T07:54:01.105Z,100014.98
2022-11-09T07:56:05.557Z,100018.08
2022-11-09T07:58:09.921Z,100018.59
2022-11-09T08:00:14.335Z,100022.66
2022-11-09T08:02:24.695Z,100025.73
2022-11-09T08:04:29.186Z,100026.31
2022-11-09T08:06:33.727Z,100027.44
2022-11-09T08:08:38.290Z,100028.25
2022-11-09T08:10:42.684Z,100026.66
2022-11-09T08:12:47.084Z,100031.21
2022-11-09T08:14:51.442Z,100030.36
2022-11-09T08:16:55.898Z,100022.23
2022-11-09T08:19:00.320Z,100022.47
2022-11-09T08:21:04.698Z,100022.3
2022-11-09T08:23:09.089Z,100020.03
2022-11-09T08:25:13.737Z,100022.14
2022-11-09T08:27:18.115Z,100019.23
2022-11-09T08:29:22.477Z,100020.13
2022-11-09T08:31:26.883Z,100018.97
2022-11-09T08:33:31.384Z,100025.11
2022-11-09T08:35:35.742Z,100024.45
2022-11-09T08:37:40.162Z,100025.92
2022-11-09T08:39:44.565Z,100026.56
2022-11-09T08:41:48.979Z,100022.99
2022-11-09T08:43:53.399Z,100020.64
2022-11-09T08:45:57.815Z,100020.59
2022-11-09T08:48:02.188Z,100020.8
2022-11-09T08:50:06.559Z,100020.18
2022-11-09T08:52:10.979Z,100019.63
2022-11-09T08:54:15.361Z,100017.83
2022-11-09T08:56:19.737Z,100018.1
2022-11-09T08:58:24.601Z,100020.52
2022-11-09T09:00:28.979Z,100022.41
2022-11-09T09:02:33.369Z,100026.86
2022-11-09T09:04:37.780Z,100027.78
2022-11-09T09:06:42.248Z,100034.95
2022-11-09T09:08:46.899Z,100033.7
2022-11-09T09:10:51.305Z,100027.67
2022-11-09T09:12:55.749Z,100027.47
2022-11-09T09:15:00.153Z,100026.34
2022-11-09T09:17:04.552Z,100030.91
2022-11-09T09:19:08.966Z,100032.41
2022-11-09T09:21:13.463Z,100034.78
2022-11-09T09:23:17.862Z,100034.17
2022-11-09T09:25:22.438Z,100040.25
2022-11-09T09:27:26.915Z,100037.97
2022-11-09T09:29:31.318Z,100041.84
2022-11-09T09:31:35.690Z,100041.64
2022-11-09T09:33:40.091Z,100042.33
2022-11-09T09:35:44.504Z,100046.69
2022-11-09T09:37:48.917Z,100053.36
2022-11-09T09:39:53.299Z,100049.75
2022-11-09T09:41:57.669Z,100051.64
2022-11-09T09:44:02.075Z,100045.23
2022-11-09T09:46:06.495Z,100044.56
2022-11-09T09:48:10.908Z,100041.55
2022-11-09T09:50:15.552Z,100044.44
2022-11-09T09:52:20.151Z,100044.3
2022-11-09T09:54:24.558Z,100048.08
2022-11-09T09:56:28.968Z,100050.11
2022-11-09T09:58:33.381Z,100048
2022-11-09T10:00:37.774Z,100049.2
2022-11-09T10:02:42.178Z,100051.3
2022-11-09T10:04:46.699Z,100049.39
2022-11-09T10:06:51.396Z,100043.42
2022-11-09T10:08:56.005Z,100036.45
2022-11-09T10:11:00.384Z,100032.55
2022-11-09T10:13:04.839Z,100036.94
2022-11-09T10:15:09.206Z,100036.81
2022-11-09T10:17:13.575Z,100028.28
2022-11-09T10:19:17.953Z,100033.75
2022-11-09T10:21:22.371Z,100031.52
2022-11-09T10:23:26.732Z,100031.78
2022-11-09T10:26:04.128Z,100028.2
2022-11-09T10:28:14.726Z,100041.53
2022-11-09T10:30:19.126Z,100049.24
2022-11-09T10:32:23.545Z,100050.77
2022-11-09T10:34:28.020Z,100041.05
2022-11-09T10:36:32.422Z,100035.93
2022-11-09T10:38:36.815Z,100044.55
2022-11-09T10:40:41.206Z,100052.45
2022-11-09T10:42:45.541Z,100043.77
2022-11-09T10:44:49.955Z,100048.53
2022-11-09T10:46:54.356Z,100045.89
2022-11-09T10:48:58.714Z,100042.83
2022-11-09T10:51:03.099Z,100031.94
2022-11-09T10:53:07.764Z,100032.93
2022-11-09T10:55:12.572Z,100036.45
2022-11-09T10:57:16.970Z,100037.13
2022-11-09T10:59:21.335Z,100034
2022-11-09T11:01:25.874Z,100031.14
2022-11-09T11:03:30.464Z,100027.17
2022-11-09T11:05:34.807Z,100021.72
2022-11-09T11:07:39.196Z,100020.27
2022-11-09T11:09:43.667Z,100023.85
2022-11-09T11:11:48.053Z,100025.58
2022-11-09T11:13:52.480Z,100022.05
2022-11-09T11:15:56.815Z,100024.51
2022-11-09T11:18:01.210Z,100024.18
2022-11-09T11:20:05.599Z,100022.82
2022-11-09T11:22:09.985Z,100018.27
2022-11-09T11:24:14.353Z,100019.34
2022-11-09T11:26:18.767Z,100015.39
2022-11-09T11:28:23.123Z,100014.31
2022-11-09T11:30:27.505Z,100015.26
2022-11-09T11:32:31.875Z,100021.14
2022-11-09T11:35:01.477Z,100031.05
2022-11-09T11:37:06.298Z,100042.31
2022-11-09T11:39:10.631Z,100042.3
2022-11-09T11:41:14.991Z,100046.8
2022-11-09T11:43:20.753Z,100048.05
2022-11-09T11:45:42.173Z,100044.2
2022-11-09T11:47:46.813Z,100045.01
2022-11-09T11:49:51.267Z,100039.3
2022-11-09T11:51:55.675Z,100037.27
2022-11-09T11:54:00.068Z,100034.98
2022-11-09T11:56:04.524Z,100040.33
2022-11-09T11:58:08.948Z,100039.53
2022-11-09T12:00:13.308Z,100040.11
2022-11-09T12:02:17.861Z,100042.22
2022-11-09T12:04:22.303Z,100043.49
2022-11-09T12:06:31.679Z,100045.31
2022-11-09T12:08:36.232Z,100041.47
2022-11-09T12:10:40.606Z,100044.89
2022-11-09T12:12:44.985Z,100040.75
2022-11-09T12:14:49.376Z,100042.36
2022-11-09T12:16:53.764Z,100039.31
2022-11-09T12:18:58.160Z,100038.3
2022-11-09T12:21:02.459Z,100039.36
2022-11-09T12:23:06.914Z,100036.91
2022-11-09T12:25:11.337Z,100029.2
2022-11-09T12:27:33.660Z,100019.16
2022-11-09T12:29:38.139Z,100010.17
2022-11-09T12:31:44.089Z,100010.06
2022-11-09T12:33:48.508Z,100014.81
2022-11-09T12:35:53.256Z,100014.15
2022-11-09T12:37:57.723Z,100012.34
2022-11-09T12:40:02.146Z,100015.36
2022-11-09T12:42:06.514Z,100018.48
2022-11-09T12:44:17.465Z,100013.7
2022-11-09T12:46:21.927Z,100013.45
2022-11-09T12:48:26.373Z,100013.25
2022-11-09T12:50:30.807Z,100008.56
2022-11-09T12:52:35.206Z,100002.58
2022-11-09T12:54:39.583Z,100001.22
2022-11-09T12:56:43.987Z,100002.55
2022-11-09T12:58:48.317Z,100008.53
2022-11-09T13:00:52.838Z,100011.16
2022-11-09T13:02:57.235Z,100012.06
2022-11-09T13:05:01.709Z,100010.56
2022-11-09T13:07:06.539Z,100011.59
2022-11-09T13:09:11.215Z,100013.64
2022-11-09T13:11:15.640Z,100013.06
2022-11-09T13:13:20.971Z,100017.53
2022-11-09T13:15:26.228Z,100016.92
2022-11-09T13:17:30.666Z,100015.7
2022-11-09T13:19:35.092Z,100014.69
2022-11-09T13:21:39.509Z,100012.61
2022-11-09T13:24:14.338Z,100016.3
2022-11-09T13:26:25.062Z,100015.98
2022-11-09T13:28:29.466Z,100014.55
2022-11-09T13:30:33.831Z,100016.7
2022-11-09T13:32:38.207Z,100021.23
2022-11-09T13:34:42.580Z,100022.98
2022-11-09T13:36:46.985Z,100026.83
2022-11-09T13:38:51.415Z,100028.36
2022-11-09T13:40:55.822Z,100026.31
2022-11-09T13:43:00.227Z,100030.58
2022-11-09T13:45:04.627Z,100030.81
2022-11-09T13:47:09.032Z,100026.77
2022-11-09T13:49:13.737Z,100022.5
2022-11-09T13:51:18.104Z,100021.55
2022-11-09T13:53:22.453Z,100020.94
2022-11-09T13:55:26.851Z,100021.27
2022-11-09T13:57:31.210Z,100026.05
2022-11-09T13:59:35.595Z,100029.52
2022-11-09T14:01:40.128Z,100033.41
2022-11-09T14:03:44.857Z,100030.28
2022-11-09T14:05:49.471Z,100020.66
2022-11-09T14:07:54.052Z,100017.38
2022-11-09T14:09:58.471Z,100018.72
2022-11-09T14:12:02.930Z,100031.33
2022-11-09T14:14:07.358Z,100033.75
2022-11-09T14:16:12.639Z,100032.02
2022-11-09T14:18:17.031Z,100027.22
2022-11-09T14:20:21.433Z,100024.6
2022-11-09T14:22:26.324Z,100027.97
2022-11-09T14:24:30.735Z,100029.5
2022-11-09T14:26:35.252Z,100036.94
2022-11-09T14:28:39.632Z,100033.63
2022-11-09T14:30:44.060Z,100032.08
2022-11-09T14:32:48.721Z,100035.7
2022-11-09T14:34:53.103Z,100039.12
2022-11-09T14:36:58.233Z,100033.25
2022-11-09T14:39:08.350Z,100015.41
2022-11-09T14:41:12.722Z,100008.35
2022-11-09T14:43:17.099Z,100014.85
2022-11-09T14:48:10.920Z,100020.22
2022-11-09T14:50:15.353Z,100021.88
2022-11-09T14:52:19.790Z,100020.66
2022-11-09T14:54:24.193Z,100026.89
2022-11-09T14:56:28.578Z,100018.88
2022-11-09T14:58:33.466Z,100013.16
2022-11-09T15:00:41.891Z,100014.7
2022-11-09T15:02:49.752Z,100023.64
2022-11-09T15:04:54.166Z,100033.88
2022-11-09T15:06:58.624Z,100041.08
2022-11-09T15:09:03.233Z,100049.52
2022-11-09T15:11:07.738Z,100058
2022-11-09T15:13:12.173Z,100057.04
2022-11-09T15:15:16.585Z,100045.22
2022-11-09T15:17:21.001Z,100039.02
2022-11-09T15:19:25.458Z,100035.16
2022-11-09T15:21:29.973Z,100035.32
2022-11-09T15:23:34.440Z,100026.63
2022-11-09T15:25:38.918Z,100028.03
2022-11-09T15:27:43.332Z,100033.52
2022-11-09T15:29:47.762Z,100039.63
2022-11-09T15:31:52.239Z,100035.03
2022-11-09T15:33:56.664Z,100019.41
2022-11-09T15:36:01.106Z,100014.98
2022-11-09T15:38:05.527Z,100016.05
2022-11-09T15:40:09.942Z,100020.55
2022-11-09T15:42:14.430Z,100023.95
2022-11-09T15:44:18.805Z,100028.14
2022-11-09T15:46:23.495Z,100029.89
2022-11-09T15:48:27.891Z,100028.13
2022-11-09T15:50:32.349Z,100019.33
2022-11-09T15:52:36.787Z,100021.23
2022-11-09T15:54:47.048Z,100018.91
2022-11-09T15:56:51.520Z,100026.75
2022-11-09T15:58:55.888Z,100021.38
2022-11-09T16:01:00.487Z,100031.41
2022-11-09T16:03:04.970Z,100032.23
2022-11-09T16:05:09.394Z,100029.48
2022-11-09T16:07:14.451Z,100026.25
2022-11-09T16:09:19.027Z,100022.38
2022-11-09T16:11:23.469Z,100020.25
2022-11-09T16:13:27.910Z,100021.56
2022-11-09T16:15:32.330Z,100029.7
2022-11-09T16:17:36.773Z,100030.95
2022-11-09T16:19:41.231Z,100027.67
2022-11-09T16:21:45.713Z,100038.84
2022-11-09T16:23:53.235Z,100038.3
2022-11-09T16:26:02.395Z,100035.72
2022-11-09T16:28:06.898Z,100035.48
2022-11-09T16:30:11.398Z,100037.98
2022-11-09T16:32:15.815Z,100040.48
2022-11-09T16:34:20.260Z,100043.89
2022-11-09T16:36:24.698Z,100046.94
2022-11-09T16:38:29.139Z,100044.61
2022-11-09T16:40:33.520Z,100047.75
2022-11-09T16:42:38.001Z,100055.41
2022-11-09T16:44:42.417Z,100054.45
2022-11-09T16:46:46.905Z,100051.7
2022-11-09T16:48:51.459Z,100056.07
2022-11-09T16:50:55.838Z,100059.75
2022-11-09T16:53:00.430Z,100060.87
2022-11-09T16:55:04.819Z,100063.81
2022-11-09T16:57:09.223Z,100068.95
2022-11-09T16:59:13.614Z,100073.83
2022-11-09T17:01:24.195Z,100076.09
2022-11-09T17:03:28.792Z,100074.3
2022-11-09T17:05:33.204Z,100080.45
2022-11-09T17:07:43.328Z,100082.97
2022-11-09T17:09:47.715Z,100078.34
2022-11-09T17:11:52.128Z,100070.92
2022-11-09T17:13:56.501Z,100069.3
2022-11-09T17:16:00.883Z,100066.94
2022-11-09T17:18:05.324Z,100070.31
2022-11-09T17:20:09.731Z,100069.86
2022-11-09T17:22:14.182Z,100074.05
2022-11-09T17:24:18.562Z,100076.25
2022-11-09T17:26:23.018Z,100079.94
2022-11-09T17:28:27.457Z,100086.92
2022-11-09T17:30:31.845Z,100090.35
2022-11-09T17:32:36.231Z,100086.86
2022-11-09T17:34:40.697Z,100087.23
2022-11-09T17:37:15.210Z,100085.66
2022-11-09T17:39:19.654Z,100085.39
2022-11-09T17:41:24.059Z,100090.81
2022-11-09T17:43:28.483Z,100091.05
2022-11-09T17:45:32.904Z,100090.41
2022-11-09T17:47:37.268Z,100084.03
2022-11-09T17:49:41.664Z,100084.87
2022-11-09T17:51:46.081Z,100084.84
2022-11-09T17:53:50.478Z,100084.95
2022-11-09T17:55:54.859Z,100083.76
2022-11-09T17:57:59.268Z,100088.77
2022-11-09T18:00:03.636Z,100089.97
2022-11-09T18:02:08.057Z,100095.09
2022-11-09T18:04:12.507Z,100098.31
2022-11-09T18:06:17.223Z,100094.86
2022-11-09T18:08:22.499Z,100096.67
2022-11-09T18:10:27.251Z,100097.28
2022-11-09T18:12:31.792Z,100098.27
2022-11-09T18:14:36.171Z,100099.69
2022-11-09T18:16:40.571Z,100103.84
2022-11-09T18:18:45.000Z,100105.49
2022-11-09T18:20:49.470Z,100106.03
2022-11-09T18:22:53.899Z,100106.56
2022-11-09T18:24:58.295Z,100099.42
2022-11-09T18:27:02.677Z,100105.47
2022-11-09T18:29:07.030Z,100107.26
2022-11-09T18:31:11.598Z,100109.75
2022-11-09T18:33:15.975Z,100116.94
2022-11-09T18:35:20.414Z,100108.47
2022-11-09T18:37:24.809Z,100109.98
2022-11-09T18:39:29.229Z,100111.89
2022-11-09T18:41:33.616Z,100126.77
2022-11-09T18:43:38.067Z,100127.06
2022-11-09T18:45:42.507Z,100125.19
2022-11-09T18:47:46.946Z,100126.38
2022-11-09T18:49:51.419Z,100126.38
2022-11-09T18:51:56.010Z,100127.68
2022-11-09T18:54:00.396Z,100129.36
2022-11-09T18:56:07.939Z,100129
2022-11-09T18:58:12.325Z,100128.48
2022-11-09T19:00:16.779Z,100124.8
2022-11-09T19:02:21.188Z,100127.98
2022-11-09T19:04:25.585Z,100132.11
2022-11-09T19:06:30.181Z,100131.64
2022-11-09T19:08:34.734Z,100123.17
2022-11-09T19:10:39.159Z,100126.97
2022-11-09T19:12:43.616Z,100123.97
2022-11-09T19:14:48.010Z,100131.27
2022-11-09T19:16:52.487Z,100138.56
2022-11-09T19:18:56.898Z,100138.58
2022-11-09T19:21:01.375Z,100144
2022-11-09T19:23:05.796Z,100144.02
2022-11-09T19:25:10.224Z,100140.52
2022-11-09T19:27:14.662Z,100143.67
2022-11-09T19:29:19.097Z,100142.15
2022-11-09T19:31:23.527Z,100143.51
2022-11-09T19:33:27.921Z,100137.06
2022-11-09T19:35:35.176Z,100138.75
2022-11-09T19:37:39.646Z,100135.22
2022-11-09T19:39:44.610Z,100134.61
2022-11-09T19:41:49.067Z,100141.12
2022-11-09T19:43:53.453Z,100139.69
2022-11-09T19:45:58.276Z,100142.89
2022-11-09T19:48:02.707Z,100143.48
2022-11-09T19:50:07.199Z,100144.46
2022-11-09T19:52:11.609Z,100142.23
2022-11-09T19:54:15.986Z,100144.14
2022-11-09T19:56:20.457Z,100144.11
2022-11-09T19:58:25.292Z,100149.22
2022-11-09T20:00:29.608Z,100153.77
2022-11-09T20:02:34.015Z,100153.2
2022-11-09T20:04:38.460Z,100154.78
2022-11-09T20:06:43.038Z,100155.95
2022-11-09T20:08:47.522Z,100156.14
2022-11-09T20:10:51.959Z,100159.64
2022-11-09T20:12:56.365Z,100159.34
2022-11-09T20:15:00.792Z,100159.58
2022-11-09T20:17:05.262Z,100159.13
2022-11-09T20:19:09.734Z,100160.09
2022-11-09T20:21:14.113Z,100161.06
2022-11-09T20:23:22.725Z,100155.95
2022-11-09T20:25:27.156Z,100156.08
2022-11-09T20:27:33.604Z,100156.78
2022-11-09T20:29:38.003Z,100155.27
2022-11-09T20:31:42.392Z,100156.31
2022-11-09T20:33:46.774Z,100153.77
2022-11-09T20:35:51.138Z,100157.61
2022-11-09T20:37:55.641Z,100160.86
2022-11-09T20:40:00.052Z,100157.48
2022-11-09T20:42:04.478Z,100164.78
2022-11-09T20:44:08.900Z,100159.62
2022-11-09T20:46:13.329Z,100162.58
2022-11-09T20:48:53.197Z,100160.19
2022-11-09T20:50:59.561Z,100164.27
2022-11-09T20:53:03.936Z,100161.19
2022-11-09T20:55:08.304Z,100158.34
2022-11-09T20:57:12.699Z,100157.09
2022-11-09T20:59:17.095Z,100158.61
2022-11-09T21:01:21.681Z,100168.64
2022-11-09T21:03:26.235Z,100168.91
2022-11-09T21:05:30.625Z,100171.99
2022-11-09T21:07:35.012Z,100173.7
2022-11-09T21:09:39.371Z,100171.55
2022-11-09T21:11:43.756Z,100173.52
2022-11-09T21:13:48.144Z,100178.58
2022-11-09T21:15:52.554Z,100185.93
2022-11-09T21:17:57.055Z,100183.81
2022-11-09T21:20:01.535Z,100186.32
2022-11-09T21:22:05.900Z,100190.33
2022-11-09T21:24:10.318Z,100195.8
2022-11-09T21:26:14.705Z,100198.13
2022-11-09T21:28:19.688Z,100193.33
2022-11-09T21:30:24.765Z,100196.67
2022-11-09T21:32:29.184Z,100198.67
2022-11-09T21:34:37.805Z,100197.88
2022-11-09T21:36:42.187Z,100208.07
2022-11-09T21:38:46.583Z,100205.05
2022-11-09T21:40:50.987Z,100200.34
2022-11-09T21:42:55.368Z,100200.19
2022-11-09T21:44:59.714Z,100198.98
2022-11-09T21:47:04.104Z,100200.48
2022-11-09T21:49:08.513Z,100203.42
2022-11-09T21:51:12.870Z,100208.93
2022-11-09T21:53:17.283Z,100211.47
2022-11-09T21:55:22.018Z,100214.87
2022-11-09T21:57:26.386Z,100206.09
2022-11-09T21:59:30.859Z,100206.81
2022-11-09T22:01:35.437Z,100207.11
2022-11-09T22:03:40.049Z,100205.63
2022-11-09T22:05:44.425Z,100215.25
2022-11-09T22:07:48.833Z,100215.8
2022-11-09T22:10:11.447Z,100222.47
2022-11-09T22:12:16.150Z,100222.69
2022-11-09T22:14:20.603Z,100221.05
2022-11-09T22:16:24.981Z,100217.19
2022-11-09T22:18:29.387Z,100218.51
2022-11-09T22:20:33.859Z,100224.91
2022-11-09T22:22:38.248Z,100220.41
2022-11-09T22:24:42.693Z,100219.64
2022-11-09T22:26:47.111Z,100220.71
2022-11-09T22:28:51.527Z,100218.67
2022-11-09T22:30:55.894Z,100219.99
2022-11-09T22:33:00.367Z,100217.8
2022-11-09T22:35:04.779Z,100228.54
2022-11-09T22:37:09.188Z,100228.62
2022-11-09T22:39:13.603Z,100230.65
2022-11-09T22:41:17.985Z,100232.66
2022-11-09T22:43:23.301Z,100229.13
2022-11-09T22:45:28.293Z,100233.2
2022-11-09T22:47:32.642Z,100231.34
2022-11-09T22:49:37.218Z,100238.54
2022-11-09T22:51:41.649Z,100240.86
2022-11-09T22:53:46.247Z,100242.75
2022-11-09T22:55:50.696Z,100246.06
2022-11-09T22:57:55.143Z,100247.63
2022-11-09T22:59:59.536Z,100242.69
2022-11-09T23:02:04.083Z,100242.94
2022-11-09T23:04:08.452Z,100247.66
2022-11-09T23:06:12.855Z,100246.67
2022-11-09T23:08:17.290Z,100249.17
2022-11-09T23:10:21.676Z,100252.08
2022-11-09T23:12:26.202Z,100251.44
2022-11-09T23:14:30.605Z,100253.97
2022-11-09T23:16:35.039Z,100255.78
2022-11-09T23:18:39.509Z,100258.27
2022-11-09T23:20:43.965Z,100255.3
2022-11-09T23:22:48.415Z,100253.6
2022-11-09T23:24:52.826Z,100257.36
2022-11-09T23:26:57.269Z,100253.69
2022-11-09T23:29:01.744Z,100256.52
2022-11-09T23:31:06.219Z,100261.77
2022-11-09T23:33:10.613Z,100261.48
2022-11-09T23:35:15.011Z,100260.94
2022-11-09T23:37:19.399Z,100261.67
2022-11-09T23:39:23.802Z,100265.55
2022-11-09T23:41:30.104Z,100268.97
2022-11-09T23:43:34.517Z,100268.35
2022-11-09T23:45:38.957Z,100274.02
2022-11-09T23:47:43.373Z,100285.35
2022-11-09T23:49:47.827Z,100280.35
2022-11-09T23:51:52.239Z,100274.98
2022-11-09T23:53:56.645Z,100279.64
2022-11-09T23:56:01.153Z,100280.36
2022-11-09T23:58:05.523Z,100279.14
